Airfield :
LOGIN :

Register | Disclaimer

   EN    FR    IT 

 










Legend :    VFR   Marginal VFR   IFR   Intensive IFR   Very Intensive IFR
Visi :
Ceiling :
>= 8 km
>= 3000ft
5 to 8 km
1000 to 3000 ft
1500m to 5 km
500 to 1000 ft
800 to 1500m
200 to 500 ft
< 800m
< 200 ft
Symbols :   Thunderstorms  Fog  Heavy snow  Heavy precipitations  Wind > 20 kt
SIGMETs :     Misc.  Thunderstorms  Icing  Turbulence  Mountain Waves  Volcanic Ashes







- Airport Elevation : 47 ft
- IATA code : CBG
- Download approach charts


EGSC - Cambridge

CURRENT METAR :
  • 191150Z 13005KT 080V160 7000 NSC 17/15 Q1003

EXPIRED METARs :
  • 191120Z 14004KT 110V170 4900 BR NSC 16/15 Q1004
  • 191050Z 12005KT 080V160 4800 BR FEW005 16/15 Q1004
  • 191020Z 12004KT 080V150 4500 BR FEW003 16/15 Q1004
  • 190950Z VRB03KT 4000 BR SCT003 15/15 Q1005
  • 190920Z VRB03KT 3500 BR OVC003 15/15 Q1005

TAF TAF EGSC
Valid from the 19 at 12:00 until the 19 at 19:00 UTC


191105Z 1912/1919 12004KT 4500 BR FEW020
BECMG 1912/1914 9999 NSW
BECMG 1912/1915 18010KT
TEMPO 1914/1919 6000 -RADZ BKN012
No reported NOTAMs for that airfield.



MET'MAP, your aeronautical weather chart ! - Copyright ORBIFLY December 2007 - Disclaimer

ORBIFLY MET'MAP TEAM :

Programming & Development : Alexandra Zaïnal
Concept & Development : Baudouin d'Aumeries
Co-Development & Prog : Marc-Olivier Méhu
Technical & hardware support : Manuel Goepfert

Contact : metmap@orbifly.com




SOURCES & CREDITS :

   NOAA